Map

Track Data

SID SEASON NUMBER BASIN SUBBASIN NAME ISO_TIME NATURE LAT LON WMO_WIND WMO_PRES WMO_AGENCY TRACK_TYPE DIST2LAND LANDFALL IFLAG USA_AGENCY USA_ATCF_ID USA_LAT USA_LON USA_RECORD USA_STATUS USA_WIND USA_PRES USA_SSHS USA_R34_NE USA_R34_SE USA_R34_SW USA_R34_NW USA_R50_NE USA_R50_SE USA_R50_SW USA_R50_NW USA_R64_NE USA_R64_SE USA_R64_SW USA_R64_NW USA_POCI USA_ROCI USA_RMW USA_EYE TOKYO_LAT TOKYO_LON TOKYO_GRADE TOKYO_WIND TOKYO_PRES TOKYO_R50_DIR TOKYO_R50_LONG TOKYO_R50_SHORT TOKYO_R30_DIR TOKYO_R30_LONG TOKYO_R30_SHORT TOKYO_LAND CMA_LAT CMA_LON CMA_CAT CMA_WIND CMA_PRES HKO_LAT HKO_LON HKO_CAT HKO_WIND HKO_PRES NEWDELHI_LAT NEWDELHI_LON NEWDELHI_GRADE NEWDELHI_WIND NEWDELHI_PRES NEWDELHI_CI NEWDELHI_DP NEWDELHI_POCI REUNION_LAT REUNION_LON REUNION_TYPE REUNION_WIND REUNION_PRES REUNION_TNUM REUNION_CI REUNION_RMW REUNION_R34_NE REUNION_R34_SE REUNION_R34_SW REUNION_R34_NW REUNION_R50_NE REUNION_R50_SE REUNION_R50_SW REUNION_R50_NW REUNION_R64_NE REUNION_R64_SE REUNION_R64_SW REUNION_R64_NW BOM_LAT BOM_LON BOM_TYPE BOM_WIND BOM_PRES BOM_TNUM BOM_CI BOM_RMW BOM_R34_NE BOM_R34_SE BOM_R34_SW BOM_R34_NW BOM_R50_NE BOM_R50_SE BOM_R50_SW BOM_R50_NW BOM_R64_NE BOM_R64_SE BOM_R64_SW BOM_R64_NW BOM_ROCI BOM_POCI BOM_EYE BOM_POS_METHOD BOM_PRES_METHOD NADI_LAT NADI_LON NADI_CAT NADI_WIND NADI_PRES WELLINGTON_LAT WELLINGTON_LON WELLINGTON_WIND WELLINGTON_PRES DS824_LAT DS824_LON DS824_STAGE DS824_WIND DS824_PRES TD9636_LAT TD9636_LON TD9636_STAGE TD9636_WIND TD9636_PRES TD9635_LAT TD9635_LON TD9635_WIND TD9635_PRES TD9635_ROCI NEUMANN_LAT NEUMANN_LON NEUMANN_CLASS NEUMANN_WIND NEUMANN_PRES MLC_LAT MLC_LON MLC_CLASS MLC_WIND MLC_PRES USA_GUST BOM_GUST BOM_GUST_PER REUNION_GUST REUNION_GUST_PER USA_SEAHGT USA_SEARAD_NE USA_SEARAD_SE USA_SEARAD_SW USA_SEARAD_NW STORM_SPEED STORM_DIR
1958136N16088 1958 34 NI BB NOT_NAMED 1958-05-16 06:00:00 TS 16.4000 87.8000 main 429 391 O________O____ jtwc_io IO021958 16.4000 87.8000 -1 16.4000 87.8000 TC 8 8
1958136N16088 1958 34 NI BB NOT_NAMED 1958-05-16 09:00:00 TS 16.8150 87.8624 main 391 350 P________P____ IO021958 16.8150 87.8624 -1 16.8150 87.8624 TC 8 7
1958136N16088 1958 34 NI BB NOT_NAMED 1958-05-16 12:00:00 TS 17.2000 87.9000 main 350 321 O________O____ jtwc_io IO021958 17.2000 87.9000 -1 17.2000 87.9000 TC 25 7 4
1958136N16088 1958 34 NI BB NOT_NAMED 1958-05-16 15:00:00 TS 17.5267 87.9001 main 321 292 P________PO___ IO021958 17.5300 87.9001 -1 17.5300 87.9001 TC 25 17.5000 87.9000 1 6 2
1958136N16088 1958 34 NI BB NOT_NAMED 1958-05-16 18:00:00 TS 17.7878 87.9056 main 292 273 O________OP___ jtwc_io IO021958 17.8000 87.9000 -1 17.8000 87.9000 TC 25 17.7391 87.9282 1 5 4
1958136N16088 1958 34 NI BB NOT_NAMED 1958-05-16 21:00:00 TS 17.9952 87.9432 main 273 262 P________PP___ IO021958 18.0000 87.9350 -1 18.0000 87.9350 TC 30 17.9825 87.9651 1 4 13
1958136N16088 1958 34 NI BB NOT_NAMED 1958-05-17 00:00:00 TS 18.2116 88.0065 main 262 244 O________OP___ jtwc_io IO021958 18.2000 88.0000 -1 18.2000 88.0000 TC 35 18.2347 88.0195 1 5 16
1958136N16088 1958 34 NI BB NOT_NAMED 1958-05-17 03:00:00 TS 18.4950 88.0900 main 244 229 P________PO___ IO021958 18.4925 88.0850 -1 18.4925 88.0850 TC 35 18.5000 88.1000 2 6 18
1958136N16088 1958 34 NI BB NOT_NAMED 1958-05-17 06:00:00 TS 18.7933 88.2043 main 229 221 O________OP___ jtwc_io IO021958 18.8000 88.2000 -1 18.8000 88.2000 TC 35 18.7800 88.2130 2 6 23
1958136N16088 1958 34 NI BB NOT_NAMED 1958-05-17 09:00:00 TS 19.0600 88.3417 main 214 214 P________PP___ IO021958 19.0575 88.3351 -1 19.0575 88.3351 TC 35 19.0650 88.3549 2 6 29
1958136N16088 1958 34 NI BB NOT_NAMED 1958-05-17 12:00:00 TS 19.3142 88.5064 main 219 213 O________OP___ jtwc_io IO021958 19.3000 88.5000 -1 19.3000 88.5000 TC 35 19.3425 88.5193 2 6 33
1958136N16088 1958 34 NI BB NOT_NAMED 1958-05-17 15:00:00 TS 19.5767 88.6950 main 215 201 P________PO___ IO021958 19.5650 88.6925 -1 19.5650 88.6925 TC 35 19.6000 88.7000 3 6 36
1958136N16088 1958 34 NI BB NOT_NAMED 1958-05-17 18:00:00 TS 19.7881 88.8795 main 201 190 O________OP___ jtwc_io IO021958 19.8000 88.9000 -1 19.8000 88.9000 TC 35 19.7642 88.8385 3 5 44
1958136N16088 1958 34 NI BB NOT_NAMED 1958-05-17 21:00:00 TS 19.9238 89.0561 main 190 168 P________PP___ IO021958 19.9274 89.0853 -1 19.9274 89.0853 TC 35 19.9166 88.9978 3 5 49
1958136N16088 1958 34 NI BB NOT_NAMED 1958-05-18 00:00:00 TS 20.1036 89.2693 main 169 140 O________OP___ jtwc_io IO021958 20.1000 89.3000 -1 20.1000 89.3000 TC 35 20.1108 89.2080 3 7 42
1958136N16088 1958 34 NI BB NOT_NAMED 1958-05-18 03:00:00 TS 20.4215 89.5320 main 140 101 P________PO___ IO021958 20.4323 89.5480 -1 20.4323 89.5480 TC 35 20.4000 89.5000 3 10 38
1958136N16088 1958 34 NI BB NOT_NAMED 1958-05-18 06:00:00 TS 20.8875 89.9120 main 101 45 O________OP___ jtwc_io IO021958 20.9000 89.9000 -1 20.9000 89.9000 TC 35 20.8626 89.9360 3 13 39
1958136N16088 1958 34 NI BB NOT_NAMED 1958-05-18 09:00:00 TS 21.4632 90.4353 main 39 23 P________PP___ IO021958 21.4853 90.4269 -1 21.4853 90.4269 TC 30 21.4190 90.4520 3 16 40
1958136N16088 1958 34 NI BB NOT_NAMED 1958-05-18 12:00:00 TS 22.0719 90.9975 main 23 10 O________OP___ jtwc_io IO021958 22.1000 91.0000 -1 22.1000 91.0000 TC 25 22.0158 90.9924 3 15 40
1958136N16088 1958 34 NI BB NOT_NAMED 1958-05-18 15:00:00 TS 22.6149 91.4869 main 10 0 P________PO___ IO021958 22.6223 91.4804 -1 22.6223 91.4804 TC 25 22.6000 91.5000 1 13 39
1958136N16088 1958 34 NI BB NOT_NAMED 1958-05-18 18:00:00 TS 23.1124 91.9119 main 0 0 O________OP___ jtwc_io IO021958 23.1000 91.9000 -1 23.1000 91.9000 TC 25 23.1311 91.9298 1 12 37
1958136N16088 1958 34 NI BB NOT_NAMED 1958-05-18 21:00:00 TS 23.5804 92.2759 main 0 0 P________PP___ IO021958 23.5551 92.2646 -1 23.5551 92.2646 TC 25 23.6140 92.2910 1 11 35
1958136N16088 1958 34 NI BB NOT_NAMED 1958-05-19 00:00:00 TS 24.0325 92.6032 main 0 0 O________OP___ jtwc_io IO021958 24.0000 92.6000 -1 24.0000 92.6000 TC 25 24.0651 92.6065 1 11 32
1958136N16088 1958 34 NI BB NOT_NAMED 1958-05-19 03:00:00 NR 24.5000 92.9000 main 0 __________O___ IO021958 -1 TC 24.5000 92.9000 1 11 30

About IBTrACS Database

This database is a web-friendly format of International Best Track Archive for Climate Stewardship (IBTrACS), a global best track data archive curated by NOAA dating back to 1842.

Updated: 2021-11-26